Pagrindinis puslapis
METAR-TAF:

METAR-TAF

Oro uostai :

Bankokas-Suvarnabhumi, Tailandas

platuma: 13-40-52N, ilguma: 100-44-50E, Aukštis: 2 m

Dabartinis oras

Ataskaita buvo paskelbta 22 minutes, ne 13:30 UTC
Vėjas 6 kt iš Rytų, svyruoja nuo Šiaurės/Šiaurės Rytų ir Rytų/Pietryčių
Temperatūra 29°C
Drėgmė 55%
Slėgis 1012 hPa
Matomumas 10 km arba daugiau
Mažai debesys ne aukštis 2500 ft

METAR: VTBS 201330Z 08006KT 030V110 9999 FEW025 29/19 Q1012 NOSIG

Laikas: 20:52 (13:52 UTC)

Prognozė

Ataskaita buvo paskelbta 2 valandos ir 52 minutes, ne 11:00 UTC
Prognozė galioja nuo 20 metu 12 UTC su 21 metu 18 UTC
Vėjas 8 kt iš Rytų/Šiaurės Rytų
Matomumas: 9000 m
Mažai debesys ne aukštis 2500 ft

TAF: VTBS 201100Z 2012/2118 07008KT 9000 FEW025

Orai ataskaitas ir orų prognozės (METAR, TAF).

turimą stotys yra geltonos ir raudonos taškus žemėlapyje.

Perkelti pele per norėdami pamatyti stoties vardą.

Tada spustelėkite, norėdami matyti oro stebėjimo ir prognozės.

Norėdami pakeisti žemėlapį: spustelėkite ant žalios mygtukų su juodo kryžiaus žemyn,; žalią mygtuką su brūkšneliu, jei norite nutolinti; arba žalių rodyklių gretimoms žemėlapius.


METAR-TAF: